Time;durP1;ratioP1;P1;durP2;ratioP2;P2;SDS_P1;SDS_P2;PMS_P1;PMS_P2;Temp;Humidity;BMP_temperature;BMP_pressure;BME280_temperature;BME280_humidity;BME280_pressure;Samples;Min_cycle;Max_cycle;Signal;HPM_P1;HPM_P2
2023/04/14 00:00:58;;;;;;;0.60;0.30;;;;;;;;;;6266323;28;20200;-61
2023/04/14 00:03:59;;;;;;;1.13;0.30;;;;;;;;;;6253212;28;20197;-61
2023/04/14 00:07:00;;;;;;;1.37;0.30;;;;;;;;;;6292831;28;20190;-61
2023/04/14 00:10:01;;;;;;;0.77;0.37;;;;;;;;;;6288676;28;20664;-61
2023/04/14 00:13:02;;;;;;;0.43;0.33;;;;;;;;;;6292162;28;20200;-61
2023/04/14 00:16:03;;;;;;;2.80;0.40;;;;;;;;;;6291995;28;20197;-61
2023/04/14 00:19:05;;;;;;;0.30;0.30;;;;;;;;;;6275539;28;20235;-61
2023/04/14 00:22:06;;;;;;;1.60;0.30;;;;;;;;;;6248281;28;20197;-61
2023/04/14 00:25:07;;;;;;;0.10;0.10;;;;;;;;;;6292668;28;20295;-61
2023/04/14 00:28:08;;;;;;;3.20;0.40;;;;;;;;;;6273839;28;20201;-61
2023/04/14 00:31:10;;;;;;;1.60;0.33;;;;;;;;;;6291036;28;20189;-62
2023/04/14 00:34:11;;;;;;;0.20;0.20;;;;;;;;;;6246922;28;20190;-62
2023/04/14 00:37:12;;;;;;;0.20;0.20;;;;;;;;;;6261908;28;20264;-62
2023/04/14 00:40:13;;;;;;;0.20;0.20;;;;;;;;;;6267519;28;20194;-61
2023/04/14 00:43:17;;;;;;;0.20;0.20;;;;;;;;;;6281250;28;20231;-62
2023/04/14 00:46:18;;;;;;;0.40;0.30;;;;;;;;;;6268717;28;20197;-62
2023/04/14 00:49:20;;;;;;;0.20;0.20;;;;;;;;;;6257439;28;20221;-62
2023/04/14 00:52:22;;;;;;;0.20;0.20;;;;;;;;;;6253630;28;20189;-61
2023/04/14 00:55:23;;;;;;;0.43;0.33;;;;;;;;;;6265116;28;20194;-61
2023/04/14 00:58:25;;;;;;;0.20;0.20;;;;;;;;;;6253780;28;20202;-61
2023/04/14 01:01:27;;;;;;;0.30;0.30;;;;;;;;;;6300471;28;20201;-61
2023/04/14 01:04:28;;;;;;;0.37;0.37;;;;;;;;;;6279951;28;20198;-61
2023/04/14 01:07:30;;;;;;;0.20;0.20;;;;;;;;;;6254322;28;20201;-61
2023/04/14 01:10:34;;;;;;;0.40;0.40;;;;;;;;;;6272831;28;20235;-61
2023/04/14 01:13:44;;;;;;;1.67;0.47;;;;;;;;;;6273707;28;20689;-61
2023/04/14 01:16:48;;;;;;;0.80;0.40;;;;;;;;;;6273674;28;20190;-61
2023/04/14 01:20:00;;;;;;;0.43;0.40;;;;;;;;;;6273932;28;20186;-61
2023/04/14 01:23:05;;;;;;;0.40;0.30;;;;;;;;;;6288872;28;20280;-62
2023/04/14 01:26:19;;;;;;;0.47;0.47;;;;;;;;;;6264053;28;20198;-62
2023/04/14 01:29:46;;;;;;;2.30;0.40;;;;;;;;;;6270496;28;20213;-62
2023/04/14 01:32:48;;;;;;;0.23;0.23;;;;;;;;;;6275215;28;20541;-62
2023/04/14 01:35:52;;;;;;;0.33;0.33;;;;;;;;;;6281062;28;20225;-62
2023/04/14 01:38:54;;;;;;;0.30;0.30;;;;;;;;;;6283285;28;20195;-62
2023/04/14 01:41:57;;;;;;;0.50;0.30;;;;;;;;;;6288995;28;20198;-62
2023/04/14 01:45:02;;;;;;;0.80;0.40;;;;;;;;;;6289977;28;20259;-62
2023/04/14 01:48:05;;;;;;;0.30;0.30;;;;;;;;;;6289839;28;20209;-62
2023/04/14 01:51:07;;;;;;;0.30;0.30;;;;;;;;;;6273640;28;20228;-62
2023/04/14 01:54:11;;;;;;;0.63;0.30;;;;;;;;;;6276180;28;20213;-62
2023/04/14 01:57:13;;;;;;;1.30;0.23;;;;;;;;;;6262619;28;20218;-62
2023/04/14 02:00:16;;;;;;;0.40;0.30;;;;;;;;;;6272926;28;20203;-62
2023/04/14 02:03:21;;;;;;;0.30;0.23;;;;;;;;;;6290062;28;20192;-62
2023/04/14 02:06:22;;;;;;;0.20;0.20;;;;;;;;;;6281546;28;20241;-62
2023/04/14 02:09:25;;;;;;;0.20;0.20;;;;;;;;;;6289599;28;20217;-62
2023/04/14 02:12:27;;;;;;;0.30;0.30;;;;;;;;;;6288008;28;20303;-61
2023/04/14 02:15:29;;;;;;;1.17;0.37;;;;;;;;;;6255702;28;20219;-61
2023/04/14 02:18:32;;;;;;;0.70;0.37;;;;;;;;;;6262825;28;20188;-61
2023/04/14 02:21:34;;;;;;;0.43;0.30;;;;;;;;;;6256994;28;20190;-61
2023/04/14 02:24:35;;;;;;;0.50;0.50;;;;;;;;;;6272478;28;20228;-61
2023/04/14 02:27:39;;;;;;;0.20;0.20;;;;;;;;;;6284767;28;20196;-61
2023/04/14 02:30:41;;;;;;;0.20;0.20;;;;;;;;;;6288855;28;20210;-62
2023/04/14 02:33:43;;;;;;;0.30;0.30;;;;;;;;;;6288849;28;20203;-62
2023/04/14 02:37:07;;;;;;;0.27;0.27;;;;;;;;;;6247221;28;20270;-61
2023/04/14 02:40:14;;;;;;;0.30;0.30;;;;;;;;;;6286029;28;20204;-61
2023/04/14 02:43:20;;;;;;;0.20;0.20;;;;;;;;;;6260259;28;20214;-61
2023/04/14 02:46:22;;;;;;;0.47;0.40;;;;;;;;;;6272383;28;20202;-61
2023/04/14 02:49:23;;;;;;;0.40;0.27;;;;;;;;;;6269248;28;20296;-61
2023/04/14 02:52:25;;;;;;;0.20;0.20;;;;;;;;;;6266727;28;20193;-61
2023/04/14 02:55:26;;;;;;;0.30;0.30;;;;;;;;;;6288761;28;20197;-61
2023/04/14 02:58:28;;;;;;;0.20;0.20;;;;;;;;;;6276119;28;20190;-61
2023/04/14 03:01:31;;;;;;;0.27;0.23;;;;;;;;;;6258173;28;20201;-61
2023/04/14 03:04:34;;;;;;;0.20;0.20;;;;;;;;;;6269654;28;20216;-61
2023/04/14 03:07:35;;;;;;;0.53;0.20;;;;;;;;;;6273174;28;20209;-61
2023/04/14 03:10:37;;;;;;;0.20;0.20;;;;;;;;;;6257501;28;20221;-62
2023/04/14 03:13:40;;;;;;;1.13;0.30;;;;;;;;;;6252653;28;20191;-62
2023/04/14 03:16:41;;;;;;;0.23;0.23;;;;;;;;;;6271382;28;20192;-62
2023/04/14 03:19:46;;;;;;;0.40;0.40;;;;;;;;;;6260259;28;20231;-61
2023/04/14 03:22:49;;;;;;;0.40;0.30;;;;;;;;;;6293210;28;20178;-61
2023/04/14 03:25:51;;;;;;;0.30;0.30;;;;;;;;;;6275582;28;20193;-61
2023/04/14 03:28:53;;;;;;;0.40;0.40;;;;;;;;;;6291751;28;20222;-61
2023/04/14 03:31:55;;;;;;;0.40;0.40;;;;;;;;;;6252758;28;20194;-61
2023/04/14 03:34:57;;;;;;;0.63;0.33;;;;;;;;;;6290330;28;20229;-61
2023/04/14 03:38:01;;;;;;;0.30;0.30;;;;;;;;;;6259748;28;20194;-61
2023/04/14 03:41:04;;;;;;;0.30;0.30;;;;;;;;;;6290886;28;20198;-61
2023/04/14 03:44:06;;;;;;;1.00;0.40;;;;;;;;;;6265866;28;20254;-61
2023/04/14 03:47:08;;;;;;;0.30;0.30;;;;;;;;;;6290553;28;20189;-61
2023/04/14 03:50:10;;;;;;;0.33;0.33;;;;;;;;;;6292331;28;20252;-61
2023/04/14 03:53:13;;;;;;;0.40;0.40;;;;;;;;;;6258282;28;20190;-61
2023/04/14 03:56:15;;;;;;;0.27;0.27;;;;;;;;;;6273069;28;20191;-62
2023/04/14 03:59:17;;;;;;;0.47;0.47;;;;;;;;;;6287017;28;20196;-62
2023/04/14 04:02:18;;;;;;;1.03;0.40;;;;;;;;;;6273868;28;20199;-61
2023/04/14 04:05:20;;;;;;;0.40;0.40;;;;;;;;;;6275235;28;20193;-62
2023/04/14 04:08:22;;;;;;;0.60;0.60;;;;;;;;;;6271266;28;20194;-62
2023/04/14 04:11:25;;;;;;;0.60;0.60;;;;;;;;;;6291335;28;20211;-62
2023/04/14 04:14:28;;;;;;;1.00;0.50;;;;;;;;;;6271807;28;20190;-61
2023/04/14 04:17:31;;;;;;;0.50;0.50;;;;;;;;;;6292024;28;20189;-62
2023/04/14 04:20:32;;;;;;;0.70;0.50;;;;;;;;;;6291663;28;20189;-62
2023/04/14 04:23:34;;;;;;;0.60;0.60;;;;;;;;;;6276303;28;20194;-69
2023/04/14 04:26:35;;;;;;;1.27;0.60;;;;;;;;;;6280013;28;20204;-69
2023/04/14 04:29:37;;;;;;;0.67;0.67;;;;;;;;;;6258592;28;20209;-68
2023/04/14 04:32:38;;;;;;;0.70;0.70;;;;;;;;;;6258064;28;20197;-68
2023/04/14 04:35:41;;;;;;;1.77;1.10;;;;;;;;;;6270297;28;20228;-68
2023/04/14 04:38:42;;;;;;;1.10;0.70;;;;;;;;;;6283257;28;20205;-68
2023/04/14 04:41:44;;;;;;;0.77;0.60;;;;;;;;;;6251043;28;20197;-69
2023/04/14 04:44:45;;;;;;;0.80;0.80;;;;;;;;;;6257477;28;20201;-69
2023/04/14 04:47:46;;;;;;;2.20;0.80;;;;;;;;;;6257429;28;20202;-69
2023/04/14 04:50:47;;;;;;;0.80;0.80;;;;;;;;;;6258018;28;20213;-69
2023/04/14 04:53:48;;;;;;;0.97;0.60;;;;;;;;;;6280590;28;20327;-69
2023/04/14 04:56:49;;;;;;;1.13;1.00;;;;;;;;;;6291128;28;20197;-68
2023/04/14 04:59:50;;;;;;;1.27;0.80;;;;;;;;;;6272996;28;20189;-62
2023/04/14 05:02:51;;;;;;;1.13;1.00;;;;;;;;;;6251594;28;20224;-67
2023/04/14 05:05:53;;;;;;;0.70;0.70;;;;;;;;;;6274244;28;20194;-67
2023/04/14 05:08:54;;;;;;;1.60;0.90;;;;;;;;;;6245570;28;20212;-68
2023/04/14 05:11:56;;;;;;;1.00;0.90;;;;;;;;;;6266903;28;20193;-66
2023/04/14 05:14:57;;;;;;;2.03;1.20;;;;;;;;;;6253399;28;20196;-67
2023/04/14 05:17:58;;;;;;;1.57;1.10;;;;;;;;;;6255591;28;20200;-68
2023/04/14 05:21:06;;;;;;;0.90;0.90;;;;;;;;;;6288656;28;20193;-68
2023/04/14 05:24:08;;;;;;;1.67;1.33;;;;;;;;;;6239560;28;20195;-68
2023/04/14 05:27:09;;;;;;;1.20;1.10;;;;;;;;;;6290381;28;20193;-68
2023/04/14 05:30:10;;;;;;;1.23;1.10;;;;;;;;;;6251255;28;20228;-68
2023/04/14 05:33:11;;;;;;;1.57;1.00;;;;;;;;;;6251460;28;20218;-69
2023/04/14 05:36:12;;;;;;;1.77;1.20;;;;;;;;;;6270084;28;20236;-68
2023/04/14 05:39:13;;;;;;;1.83;1.20;;;;;;;;;;6250380;28;20283;-68
2023/04/14 05:42:15;;;;;;;1.60;1.00;;;;;;;;;;6255083;28;20192;-68
2023/04/14 05:45:16;;;;;;;2.20;1.10;;;;;;;;;;6243879;28;20209;-70
2023/04/14 05:48:17;;;;;;;1.20;1.10;;;;;;;;;;6253869;28;20247;-70
2023/04/14 05:51:18;;;;;;;1.40;1.00;;;;;;;;;;6287807;28;20192;-70
2023/04/14 05:54:19;;;;;;;1.53;1.10;;;;;;;;;;6253498;28;20185;-70
2023/04/14 05:57:20;;;;;;;1.40;1.07;;;;;;;;;;6259436;28;20197;-70
2023/04/14 06:00:23;;;;;;;1.20;1.10;;;;;;;;;;6264357;28;20204;-70
2023/04/14 06:03:24;;;;;;;1.33;1.10;;;;;;;;;;6286868;28;20236;-70
2023/04/14 06:06:26;;;;;;;1.60;1.30;;;;;;;;;;6251283;28;20205;-70
2023/04/14 06:09:27;;;;;;;4.10;1.73;;;;;;;;;;6247824;28;20214;-70
2023/04/14 06:12:29;;;;;;;1.63;1.30;;;;;;;;;;6273607;28;20284;-71
2023/04/14 06:15:30;;;;;;;1.80;1.60;;;;;;;;;;6284788;28;20193;-70
2023/04/14 06:18:31;;;;;;;1.33;1.17;;;;;;;;;;6253964;28;20217;-70
2023/04/14 06:21:32;;;;;;;1.50;1.30;;;;;;;;;;6286593;28;20190;-70
2023/04/14 06:24:33;;;;;;;1.83;1.00;;;;;;;;;;6241292;28;20192;-71
2023/04/14 06:27:34;;;;;;;1.23;1.07;;;;;;;;;;6286021;28;20189;-70
2023/04/14 06:30:35;;;;;;;1.73;1.30;;;;;;;;;;6252752;28;20277;-70
2023/04/14 06:33:36;;;;;;;1.63;1.03;;;;;;;;;;6258612;28;20227;-70
2023/04/14 06:36:37;;;;;;;1.73;1.17;;;;;;;;;;6251573;28;20271;-71
2023/04/14 06:39:38;;;;;;;2.70;1.10;;;;;;;;;;6253140;28;20216;-71
2023/04/14 06:42:39;;;;;;;1.80;1.50;;;;;;;;;;6286070;28;20189;-70
2023/04/14 06:45:40;;;;;;;1.57;1.00;;;;;;;;;;6254173;28;20317;-70
2023/04/14 06:48:41;;;;;;;2.40;1.73;;;;;;;;;;6246736;28;20247;-71
2023/04/14 06:51:42;;;;;;;1.63;1.43;;;;;;;;;;6243434;28;20467;-71
2023/04/14 06:54:43;;;;;;;1.23;1.10;;;;;;;;;;6242807;28;20194;-71
2023/04/14 06:57:44;;;;;;;1.43;1.10;;;;;;;;;;6286083;28;20328;-71
2023/04/14 07:00:45;;;;;;;1.30;1.20;;;;;;;;;;6252296;28;20196;-70
2023/04/14 07:03:46;;;;;;;1.40;1.30;;;;;;;;;;6254090;28;20204;-70
2023/04/14 07:06:47;;;;;;;1.70;1.53;;;;;;;;;;6285469;28;20243;-70
2023/04/14 07:09:49;;;;;;;1.20;1.10;;;;;;;;;;6239134;28;20206;-70
2023/04/14 07:12:50;;;;;;;2.40;1.40;;;;;;;;;;6281578;28;20212;-70
2023/04/14 07:15:51;;;;;;;1.87;1.40;;;;;;;;;;6287196;28;20180;-70
2023/04/14 07:18:52;;;;;;;1.57;1.40;;;;;;;;;;6253294;28;20216;-70
2023/04/14 07:21:53;;;;;;;1.93;1.50;;;;;;;;;;6244888;28;20256;-70
2023/04/14 07:24:54;;;;;;;1.47;1.30;;;;;;;;;;6265940;28;20240;-71
2023/04/14 07:27:55;;;;;;;1.87;1.20;;;;;;;;;;6286773;28;20192;-71
2023/04/14 07:30:56;;;;;;;0.80;0.80;;;;;;;;;;6239668;28;20217;-71
2023/04/14 07:33:57;;;;;;;1.20;1.10;;;;;;;;;;6250113;28;20204;-71
2023/04/14 07:36:58;;;;;;;1.60;1.30;;;;;;;;;;6243095;28;20236;-71
2023/04/14 07:39:59;;;;;;;2.07;1.47;;;;;;;;;;6244345;28;20232;-71
2023/04/14 07:43:00;;;;;;;1.07;0.97;;;;;;;;;;6253520;28;20190;-71
2023/04/14 07:46:03;;;;;;;2.60;1.53;;;;;;;;;;6265335;28;20201;-70
2023/04/14 07:49:04;;;;;;;1.40;1.30;;;;;;;;;;6286166;28;20209;-70
2023/04/14 07:52:05;;;;;;;1.37;1.27;;;;;;;;;;6257404;28;20193;-70
2023/04/14 07:55:06;;;;;;;1.10;0.87;;;;;;;;;;6257426;28;20193;-70
2023/04/14 07:58:07;;;;;;;1.57;1.03;;;;;;;;;;6273041;28;20190;-70
2023/04/14 08:01:08;;;;;;;1.00;1.00;;;;;;;;;;6245018;28;20208;-70
2023/04/14 08:04:10;;;;;;;1.13;1.03;;;;;;;;;;6248141;28;20198;-70
2023/04/14 08:07:11;;;;;;;0.80;0.80;;;;;;;;;;6246564;28;20236;-71
2023/04/14 08:10:12;;;;;;;0.80;0.60;;;;;;;;;;6264081;28;20221;-71
2023/04/14 08:13:13;;;;;;;0.70;0.70;;;;;;;;;;6271056;28;20185;-71
2023/04/14 08:16:14;;;;;;;0.97;0.80;;;;;;;;;;6272343;28;20238;-71
2023/04/14 08:19:15;;;;;;;1.80;1.13;;;;;;;;;;6255897;28;20211;-69
2023/04/14 08:22:17;;;;;;;0.80;0.80;;;;;;;;;;6243499;28;20198;-69
2023/04/14 08:25:18;;;;;;;1.63;1.07;;;;;;;;;;6257990;28;20197;-69
2023/04/14 08:28:19;;;;;;;1.10;1.00;;;;;;;;;;6269471;28;20239;-69
2023/04/14 08:31:24;;;;;;;0.80;0.80;;;;;;;;;;6286758;28;20213;-70
2023/04/14 08:34:25;;;;;;;2.53;1.00;;;;;;;;;;6270046;28;20246;-70
2023/04/14 08:37:26;;;;;;;1.80;1.30;;;;;;;;;;6257196;28;20265;-70
2023/04/14 08:40:33;;;;;;;1.27;1.10;;;;;;;;;;6254505;28;20201;-70
2023/04/14 08:43:35;;;;;;;1.53;1.20;;;;;;;;;;6287901;28;20192;-70
2023/04/14 08:46:36;;;;;;;1.40;1.00;;;;;;;;;;6242730;28;20201;-70
2023/04/14 08:49:44;;;;;;;1.50;1.30;;;;;;;;;;6255203;28;20256;-69
2023/04/14 08:52:45;;;;;;;1.60;1.23;;;;;;;;;;6263020;28;20198;-70
2023/04/14 08:55:46;;;;;;;0.70;0.70;;;;;;;;;;6272292;28;20190;-70
2023/04/14 08:58:47;;;;;;;1.20;1.07;;;;;;;;;;6254325;28;20224;-70
2023/04/14 09:01:49;;;;;;;1.13;0.83;;;;;;;;;;6287249;28;20193;-70
2023/04/14 09:04:50;;;;;;;1.20;0.70;;;;;;;;;;6286383;28;20193;-70
2023/04/14 09:07:52;;;;;;;1.20;1.10;;;;;;;;;;6267362;28;20610;-70
2023/04/14 09:10:53;;;;;;;1.13;1.00;;;;;;;;;;6288284;28;20209;-70
2023/04/14 09:13:55;;;;;;;0.60;0.60;;;;;;;;;;6284894;28;20185;-70
2023/04/14 09:16:56;;;;;;;0.53;0.50;;;;;;;;;;6287047;28;20224;-70
2023/04/14 09:19:57;;;;;;;0.83;0.83;;;;;;;;;;6270506;28;20190;-70
2023/04/14 09:22:59;;;;;;;0.87;0.83;;;;;;;;;;6248758;28;20185;-70
2023/04/14 09:26:00;;;;;;;0.63;0.63;;;;;;;;;;6288772;28;20189;-70
2023/04/14 09:29:01;;;;;;;1.60;0.60;;;;;;;;;;6269579;28;20301;-70
2023/04/14 09:32:03;;;;;;;0.60;0.60;;;;;;;;;;6267316;28;20193;-70
2023/04/14 09:35:05;;;;;;;1.00;0.90;;;;;;;;;;6246602;28;20263;-70
2023/04/14 09:38:06;;;;;;;0.90;0.90;;;;;;;;;;6269157;28;20205;-70
2023/04/14 09:41:08;;;;;;;1.30;1.20;;;;;;;;;;6252874;28;20270;-69
2023/04/14 09:44:09;;;;;;;0.93;0.93;;;;;;;;;;6284581;28;20197;-69
2023/04/14 09:47:14;;;;;;;0.73;0.73;;;;;;;;;;6287503;28;20199;-69
2023/04/14 09:50:15;;;;;;;0.70;0.70;;;;;;;;;;6288037;28;20221;-69
2023/04/14 09:53:16;;;;;;;0.93;0.60;;;;;;;;;;6252932;28;20197;-70
2023/04/14 09:56:17;;;;;;;0.70;0.60;;;;;;;;;;6271206;28;20196;-70
2023/04/14 09:59:30;;;;;;;0.90;0.90;;;;;;;;;;6254646;28;20197;-70
2023/04/14 10:02:46;;;;;;;0.97;0.77;;;;;;;;;;6270722;28;20185;-71
2023/04/14 10:05:47;;;;;;;0.80;0.80;;;;;;;;;;6270704;28;20186;-66
2023/04/14 10:08:50;;;;;;;0.80;0.60;;;;;;;;;;6244657;28;20220;-69
2023/04/14 10:12:11;;;;;;;1.07;0.70;;;;;;;;;;6266962;28;20186;-70
2023/04/14 10:15:13;;;;;;;0.60;0.60;;;;;;;;;;6267284;28;20179;-66
2023/04/14 10:18:14;;;;;;;0.80;0.80;;;;;;;;;;6271416;28;20182;-70
2023/04/14 10:21:16;;;;;;;0.80;0.60;;;;;;;;;;6254861;28;20193;-71
2023/04/14 10:24:17;;;;;;;4.07;0.80;;;;;;;;;;6287497;28;20201;-69
2023/04/14 10:27:18;;;;;;;1.20;0.60;;;;;;;;;;6288080;28;20197;-69
2023/04/14 10:30:19;;;;;;;2.37;1.00;;;;;;;;;;6285067;28;20209;-69
2023/04/14 10:33:20;;;;;;;0.50;0.50;;;;;;;;;;6251805;28;20212;-69
2023/04/14 10:36:29;;;;;;;0.97;0.87;;;;;;;;;;6252511;28;20248;-68
2023/04/14 10:39:31;;;;;;;1.33;1.07;;;;;;;;;;6287979;28;20232;-68
2023/04/14 10:42:51;;;;;;;2.73;0.80;;;;;;;;;;6252139;28;20197;-68
2023/04/14 10:45:55;;;;;;;0.80;0.80;;;;;;;;;;6270224;28;20190;-69
2023/04/14 10:48:56;;;;;;;0.80;0.80;;;;;;;;;;6270058;28;20213;-69
2023/04/14 10:52:02;;;;;;;0.57;0.57;;;;;;;;;;6287269;28;20201;-69
2023/04/14 10:55:07;;;;;;;0.60;0.60;;;;;;;;;;6270652;28;20185;-69
2023/04/14 10:58:08;;;;;;;2.03;0.70;;;;;;;;;;6268234;28;20223;-69
2023/04/14 11:01:23;;;;;;;1.53;1.00;;;;;;;;;;6254996;28;20197;-68
2023/04/14 11:04:24;;;;;;;0.67;0.67;;;;;;;;;;6248517;28;20240;-69
2023/04/14 11:07:27;;;;;;;0.57;0.57;;;;;;;;;;6287967;28;20209;-70
2023/04/14 11:10:32;;;;;;;0.50;0.50;;;;;;;;;;6271204;28;20220;-70
2023/04/14 11:13:33;;;;;;;0.63;0.63;;;;;;;;;;6272229;28;20196;-70
2023/04/14 11:16:34;;;;;;;1.07;0.90;;;;;;;;;;6274009;28;20250;-69
2023/04/14 11:19:35;;;;;;;1.23;0.80;;;;;;;;;;6260616;28;20228;-70
2023/04/14 11:22:38;;;;;;;2.03;1.13;;;;;;;;;;6293930;28;20198;-70
2023/04/14 11:25:40;;;;;;;1.83;0.90;;;;;;;;;;6292405;28;20186;-68
2023/04/14 11:28:42;;;;;;;2.07;1.43;;;;;;;;;;6289870;28;20186;-69
2023/04/14 11:31:43;;;;;;;1.63;1.13;;;;;;;;;;6274671;28;20190;-69
2023/04/14 11:34:44;;;;;;;1.67;1.03;;;;;;;;;;6274634;28;20177;-69
2023/04/14 11:37:46;;;;;;;1.23;0.70;;;;;;;;;;6273106;28;20182;-69
2023/04/14 11:40:50;;;;;;;2.20;0.60;;;;;;;;;;6289975;28;20249;-69
2023/04/14 11:43:52;;;;;;;0.43;0.43;;;;;;;;;;6273392;28;20234;-70
2023/04/14 11:46:53;;;;;;;0.40;0.40;;;;;;;;;;6291005;28;20193;-69
2023/04/14 11:49:54;;;;;;;0.43;0.43;;;;;;;;;;6247680;28;20250;-68
2023/04/14 11:52:58;;;;;;;0.43;0.43;;;;;;;;;;6244109;28;20218;-68
2023/04/14 11:55:59;;;;;;;0.63;0.63;;;;;;;;;;6244168;28;20217;-67
2023/04/14 11:59:01;;;;;;;1.37;0.50;;;;;;;;;;6250779;28;20193;-69
2023/04/14 12:02:04;;;;;;;0.93;0.93;;;;;;;;;;6289137;28;20190;-69
2023/04/14 12:05:06;;;;;;;0.90;0.60;;;;;;;;;;6273867;28;20190;-69
2023/04/14 12:08:08;;;;;;;0.30;0.30;;;;;;;;;;6291568;28;20194;-68
2023/04/14 12:11:13;;;;;;;0.33;0.33;;;;;;;;;;6267915;28;20205;-68
2023/04/14 12:14:14;;;;;;;0.50;0.40;;;;;;;;;;6251806;28;20217;-69
2023/04/14 12:17:17;;;;;;;0.43;0.40;;;;;;;;;;6259449;28;20200;-69
2023/04/14 12:20:18;;;;;;;0.63;0.43;;;;;;;;;;6265467;28;20197;-68
2023/04/14 12:23:19;;;;;;;0.47;0.47;;;;;;;;;;6251643;28;20201;-69
2023/04/14 12:26:20;;;;;;;0.80;0.40;;;;;;;;;;6247800;28;20189;-69
2023/04/14 12:29:22;;;;;;;0.30;0.30;;;;;;;;;;6257577;28;20232;-69
2023/04/14 12:32:24;;;;;;;0.30;0.30;;;;;;;;;;6257997;28;20194;-69
2023/04/14 12:35:33;;;;;;;0.53;0.50;;;;;;;;;;6259280;28;20242;-69
2023/04/14 12:38:35;;;;;;;0.40;0.40;;;;;;;;;;6292078;28;20182;-69
2023/04/14 12:41:39;;;;;;;0.60;0.60;;;;;;;;;;6274849;28;20236;-69
2023/04/14 12:44:41;;;;;;;0.43;0.43;;;;;;;;;;6274904;28;20190;-69
2023/04/14 12:47:54;;;;;;;0.50;0.50;;;;;;;;;;6256955;28;20232;-69
2023/04/14 12:51:06;;;;;;;0.90;0.60;;;;;;;;;;6274450;28;20218;-68
2023/04/14 12:54:07;;;;;;;0.50;0.50;;;;;;;;;;6271721;28;20187;-69
2023/04/14 12:57:08;;;;;;;0.43;0.40;;;;;;;;;;6258406;28;20194;-69
2023/04/14 13:00:10;;;;;;;0.47;0.47;;;;;;;;;;6254465;28;20204;-69
2023/04/14 13:03:11;;;;;;;0.50;0.50;;;;;;;;;;6254328;28;20201;-69
2023/04/14 13:06:16;;;;;;;0.50;0.50;;;;;;;;;;6269634;28;20200;-69
2023/04/14 13:09:17;;;;;;;0.80;0.70;;;;;;;;;;6285872;28;20217;-69
2023/04/14 13:12:18;;;;;;;0.67;0.67;;;;;;;;;;6259355;28;20198;-69
2023/04/14 13:15:19;;;;;;;0.40;0.40;;;;;;;;;;6249301;28;20201;-69
2023/04/14 13:18:20;;;;;;;0.40;0.40;;;;;;;;;;6286875;28;20189;-69
2023/04/14 13:21:21;;;;;;;0.50;0.50;;;;;;;;;;6286280;28;20196;-69
2023/04/14 13:24:22;;;;;;;0.40;0.30;;;;;;;;;;6290692;28;20185;-68
2023/04/14 13:27:24;;;;;;;0.50;0.50;;;;;;;;;;6244036;28;20240;-69
2023/04/14 13:30:25;;;;;;;0.63;0.63;;;;;;;;;;6287813;28;20354;-69
2023/04/14 13:33:26;;;;;;;0.47;0.47;;;;;;;;;;6269094;28;20219;-66
2023/04/14 13:36:27;;;;;;;0.80;0.47;;;;;;;;;;6266887;28;20241;-67
2023/04/14 13:39:28;;;;;;;1.00;0.40;;;;;;;;;;6253895;28;20197;-68
2023/04/14 13:42:29;;;;;;;0.33;0.33;;;;;;;;;;6254680;28;20181;-67
2023/04/14 13:45:31;;;;;;;0.60;0.60;;;;;;;;;;6271230;28;20185;-68
2023/04/14 13:48:32;;;;;;;1.00;0.60;;;;;;;;;;6286348;28;20186;-68
2023/04/14 13:51:33;;;;;;;0.60;0.60;;;;;;;;;;6286586;28;20236;-68
2023/04/14 13:54:34;;;;;;;1.87;0.93;;;;;;;;;;6250306;28;20318;-67
2023/04/14 13:57:35;;;;;;;2.93;2.03;;;;;;;;;;6254940;28;20186;-67
2023/04/14 14:00:37;;;;;;;1.93;1.30;;;;;;;;;;6268800;28;20215;-68
2023/04/14 14:03:38;;;;;;;0.90;0.90;;;;;;;;;;6253935;28;20243;-68
2023/04/14 14:06:39;;;;;;;1.37;0.97;;;;;;;;;;6282754;28;20186;-67
2023/04/14 14:09:43;;;;;;;1.10;1.00;;;;;;;;;;6247784;28;20225;-67
2023/04/14 14:12:44;;;;;;;1.20;1.10;;;;;;;;;;6281309;28;20190;-67
2023/04/14 14:15:45;;;;;;;1.33;1.20;;;;;;;;;;6258709;28;20181;-68
2023/04/14 14:18:47;;;;;;;1.40;1.10;;;;;;;;;;6285201;28;20184;-67
2023/04/14 14:21:48;;;;;;;1.00;0.90;;;;;;;;;;6253408;28;20201;-68
2023/04/14 14:24:49;;;;;;;1.10;0.77;;;;;;;;;;6271509;28;20208;-67
2023/04/14 14:27:50;;;;;;;2.63;0.93;;;;;;;;;;6243265;28;20185;-67
2023/04/14 14:30:51;;;;;;;1.00;0.80;;;;;;;;;;6241359;28;20241;-67
2023/04/14 14:33:52;;;;;;;0.90;0.77;;;;;;;;;;6286398;28;20271;-67
2023/04/14 14:36:54;;;;;;;2.03;1.07;;;;;;;;;;6257142;28;20230;-67
2023/04/14 14:39:56;;;;;;;3.30;1.27;;;;;;;;;;6245038;28;20224;-67
2023/04/14 14:42:57;;;;;;;1.50;1.03;;;;;;;;;;6250294;28;20316;-67
2023/04/14 14:46:00;;;;;;;1.50;1.40;;;;;;;;;;6285820;28;20228;-67
2023/04/14 14:49:01;;;;;;;1.43;1.17;;;;;;;;;;6285355;28;20304;-67
2023/04/14 14:52:03;;;;;;;2.03;1.77;;;;;;;;;;6274119;28;20238;-67
2023/04/14 14:55:04;;;;;;;1.70;1.57;;;;;;;;;;6275376;28;20201;-67
2023/04/14 14:58:07;;;;;;;2.57;1.37;;;;;;;;;;6291618;28;20194;-67
2023/04/14 15:01:08;;;;;;;1.90;1.73;;;;;;;;;;6251034;28;20193;-68
2023/04/14 15:04:09;;;;;;;2.30;1.70;;;;;;;;;;6291118;28;20197;-67
2023/04/14 15:07:10;;;;;;;2.20;2.00;;;;;;;;;;6275096;28;20193;-67
2023/04/14 15:10:11;;;;;;;2.80;2.00;;;;;;;;;;6252831;28;20245;-67
2023/04/14 15:13:12;;;;;;;1.80;1.70;;;;;;;;;;6258054;28;20272;-67
2023/04/14 15:16:13;;;;;;;2.20;2.00;;;;;;;;;;6275556;28;20186;-68
2023/04/14 15:19:15;;;;;;;2.93;1.80;;;;;;;;;;6257301;28;20194;-67
2023/04/14 15:22:16;;;;;;;1.43;1.30;;;;;;;;;;6251147;28;20215;-67
2023/04/14 15:25:17;;;;;;;2.80;1.67;;;;;;;;;;6246528;28;20202;-67
2023/04/14 15:28:19;;;;;;;3.83;2.10;;;;;;;;;;6257211;28;20204;-66
2023/04/14 15:31:20;;;;;;;3.93;1.90;;;;;;;;;;6289287;28;20210;-66
2023/04/14 15:34:22;;;;;;;4.43;2.03;;;;;;;;;;6288758;28;20182;-67
2023/04/14 15:37:24;;;;;;;2.27;2.07;;;;;;;;;;6258033;28;20284;-66
2023/04/14 15:40:25;;;;;;;2.20;2.00;;;;;;;;;;6257537;28;20216;-66
2023/04/14 15:43:27;;;;;;;2.17;1.97;;;;;;;;;;6257178;28;20189;-67
2023/04/14 15:46:28;;;;;;;2.70;2.17;;;;;;;;;;6289600;28;20217;-66
2023/04/14 15:49:29;;;;;;;3.53;2.00;;;;;;;;;;6256982;28;20222;-67
2023/04/14 15:52:30;;;;;;;1.50;1.40;;;;;;;;;;6290754;28;20181;-66
2023/04/14 15:55:31;;;;;;;3.00;2.10;;;;;;;;;;6239694;28;20186;-67
2023/04/14 15:58:33;;;;;;;2.83;2.60;;;;;;;;;;6266545;28;20182;-67
2023/04/14 16:01:34;;;;;;;2.53;2.33;;;;;;;;;;6270709;28;20189;-66
2023/04/14 16:04:35;;;;;;;2.20;2.00;;;;;;;;;;6260848;28;20198;-66
2023/04/14 16:07:36;;;;;;;4.43;2.07;;;;;;;;;;6250459;28;20190;-67
2023/04/14 16:10:41;;;;;;;2.70;2.50;;;;;;;;;;6285187;28;20244;-66
2023/04/14 16:13:44;;;;;;;2.80;2.20;;;;;;;;;;6256036;28;20178;-66
2023/04/14 16:16:46;;;;;;;3.17;2.33;;;;;;;;;;6273252;28;20246;-66
2023/04/14 16:19:47;;;;;;;2.60;2.30;;;;;;;;;;6257999;28;20220;-66
2023/04/14 16:22:48;;;;;;;3.07;2.30;;;;;;;;;;6256453;28;20194;-67
2023/04/14 16:25:49;;;;;;;2.97;2.40;;;;;;;;;;6290724;28;20274;-66
2023/04/14 16:28:51;;;;;;;2.50;2.30;;;;;;;;;;6290711;28;20217;-64
2023/04/14 16:31:52;;;;;;;3.43;2.60;;;;;;;;;;6291875;28;20206;-65
2023/04/14 16:34:53;;;;;;;3.07;2.77;;;;;;;;;;6256479;28;20297;-66
2023/04/14 16:37:54;;;;;;;3.33;3.03;;;;;;;;;;6272130;28;20190;-65
2023/04/14 16:40:56;;;;;;;3.90;2.70;;;;;;;;;;6254869;28;20306;-67
2023/04/14 16:43:57;;;;;;;3.20;2.90;;;;;;;;;;6276870;28;20194;-65
2023/04/14 16:46:58;;;;;;;2.87;2.67;;;;;;;;;;6249548;28;20231;-66
2023/04/14 16:49:59;;;;;;;3.93;2.80;;;;;;;;;;6279966;28;20227;-67
2023/04/14 16:53:00;;;;;;;3.37;2.87;;;;;;;;;;6258968;28;20193;-64
2023/04/14 16:56:05;;;;;;;5.47;3.07;;;6.40;99.90;;;;;;6257792;28;20192;-65
2023/04/14 16:59:06;;;;;;;3.00;2.80;;;6.50;99.90;;;;;;6256710;28;20198;-68
2023/04/14 17:02:07;;;;;;;2.70;2.50;;;6.40;99.00;;;;;;6258650;28;20271;-66
2023/04/14 17:05:09;;;;;;;3.57;2.43;;;6.30;99.10;;;;;;6250334;28;20201;-63
2023/04/14 17:08:10;;;;;;;3.10;2.80;;;6.30;99.60;;;;;;6258754;28;20198;-64
2023/04/14 17:11:11;;;;;;;2.77;2.37;;;6.30;99.90;;;;;;6267822;28;20275;-64
2023/04/14 17:14:12;;;;;;;2.57;2.37;;;6.20;99.50;;;;;;6240977;28;20190;-63
2023/04/14 17:17:12;;;;;;;4.13;2.23;;;6.10;98.60;;;;;;6276596;28;20201;-63
2023/04/14 17:20:14;;;;;;;2.33;2.13;;;6.10;98.90;;;;;;6263620;28;20194;-63
2023/04/14 17:23:16;;;;;;;2.50;2.30;;;6.00;99.40;;;;;;6241229;28;20197;-63
2023/04/14 17:26:17;;;;;;;3.40;2.70;;;5.90;99.80;;;;;;6228125;28;20197;-69
2023/04/14 17:29:18;;;;;;;4.83;3.43;;;5.90;99.90;;;;;;6273646;28;20292;-68
2023/04/14 17:32:19;;;;;;;3.30;2.90;;;5.90;99.90;;;;;;6247591;28;20198;-68
2023/04/14 17:35:32;;;;;;;3.40;3.10;;;5.90;99.90;;;;;;6365859;27;20895;-68
2023/04/14 17:38:33;;;;;;;4.67;3.53;;;5.90;99.90;;;;;;6313458;28;20200;-67
2023/04/14 17:41:35;;;;;;;3.37;3.07;;;5.90;99.90;;;;;;6297901;28;20201;-69
2023/04/14 17:44:37;;;;;;;4.13;3.80;;;5.90;99.90;;;;;;6314635;28;20264;-69
2023/04/14 17:47:38;;;;;;;4.63;4.17;;;5.80;99.90;;;;;;6305681;28;20642;-69
2023/04/14 17:50:39;;;;;;;5.00;4.23;;;5.80;99.90;;;;;;6291301;28;20189;-69
2023/04/14 17:53:40;;;;;;;4.17;3.87;;;5.80;99.90;;;;;;6305673;28;20214;-70
2023/04/14 17:56:41;;;;;;;4.97;4.40;;;5.80;99.90;;;;;;6289765;28;20196;-68
2023/04/14 17:59:43;;;;;;;5.20;4.40;;;5.80;99.90;;;;;;6316808;28;20187;-68
2023/04/14 18:02:44;;;;;;;6.03;3.83;;;5.80;99.90;;;;;;6288845;28;20203;-69